sensor_id;sensor_type;location;lat;lon;timestamp;pressure;altitude;pressure_sealevel;temperature;humidity
41624;BME280;27319;50.306;18.926;2022-12-24T00:03:50;97200.25;;;4.94;100.00
41624;BME280;27319;50.306;18.926;2022-12-24T00:06:51;97195.09;;;4.93;100.00
41624;BME280;27319;50.306;18.926;2022-12-24T00:09:52;97180.97;;;4.92;100.00
41624;BME280;27319;50.306;18.926;2022-12-24T00:13:13;97189.09;;;4.91;100.00
41624;BME280;27319;50.306;18.926;2022-12-24T00:17:13;97188.25;;;4.90;100.00
41624;BME280;27319;50.306;18.926;2022-12-24T00:21:14;97180.13;;;4.92;100.00
41624;BME280;27319;50.306;18.926;2022-12-24T00:25:15;97173.97;;;4.91;100.00
41624;BME280;27319;50.306;18.926;2022-12-24T00:29:15;97173.16;;;4.91;100.00
41624;BME280;27319;50.306;18.926;2022-12-24T00:33:16;97167.00;;;4.90;100.00
41624;BME280;27319;50.306;18.926;2022-12-24T00:37:16;97149.75;;;4.94;100.00
41624;BME280;27319;50.306;18.926;2022-12-24T00:41:17;97144.56;;;4.93;100.00
41624;BME280;27319;50.306;18.926;2022-12-24T00:45:18;97142.56;;;4.87;100.00
41624;BME280;27319;50.306;18.926;2022-12-24T00:49:18;97155.03;;;4.86;100.00
41624;BME280;27319;50.306;18.926;2022-12-24T00:53:19;97160.84;;;4.90;100.00
41624;BME280;27319;50.306;18.926;2022-12-24T00:57:20;97161.16;;;4.87;100.00
41624;BME280;27319;50.306;18.926;2022-12-24T01:01:21;97156.06;;;4.93;100.00
41624;BME280;27319;50.306;18.926;2022-12-24T01:05:01;97165.03;;;4.92;100.00
41624;BME280;27319;50.306;18.926;2022-12-24T01:08:31;97171.31;;;4.91;100.00
41624;BME280;27319;50.306;18.926;2022-12-24T01:12:32;97149.06;;;4.92;100.00
41624;BME280;27319;50.306;18.926;2022-12-24T01:16:32;97164.19;;;4.92;100.00
41624;BME280;27319;50.306;18.926;2022-12-24T01:20:33;97165.72;;;5.02;100.00
41624;BME280;27319;50.306;18.926;2022-12-24T01:24:34;97175.69;;;5.00;100.00
41624;BME280;27319;50.306;18.926;2022-12-24T01:28:34;97161.38;;;5.01;100.00
41624;BME280;27319;50.306;18.926;2022-12-24T01:32:35;97141.78;;;5.02;100.00
41624;BME280;27319;50.306;18.926;2022-12-24T01:36:36;97142.28;;;5.06;100.00
41624;BME280;27319;50.306;18.926;2022-12-24T01:40:37;97146.13;;;5.03;100.00
41624;BME280;27319;50.306;18.926;2022-12-24T01:44:42;97139.47;;;5.07;100.00
41624;BME280;27319;50.306;18.926;2022-12-24T01:52:16;97141.34;;;5.23;100.00
41624;BME280;27319;50.306;18.926;2022-12-24T01:56:16;97141.84;;;5.18;100.00
41624;BME280;27319;50.306;18.926;2022-12-24T02:00:16;97116.56;;;5.14;100.00
41624;BME280;27319;50.306;18.926;2022-12-24T02:03:58;97133.22;;;5.16;100.00
41624;BME280;27319;50.306;18.926;2022-12-24T02:06:59;97125.53;;;5.13;100.00
41624;BME280;27319;50.306;18.926;2022-12-24T02:10:02;97131.88;;;5.20;100.00
41624;BME280;27319;50.306;18.926;2022-12-24T02:13:04;97147.16;;;5.18;100.00
41624;BME280;27319;50.306;18.926;2022-12-24T02:16:14;97146.00;;;5.21;100.00
41624;BME280;27319;50.306;18.926;2022-12-24T02:19:45;97145.84;;;5.22;100.00
41624;BME280;27319;50.306;18.926;2022-12-24T02:33:44;97129.41;;;5.35;100.00
41624;BME280;27319;50.306;18.926;2022-12-24T02:37:47;97122.56;;;5.24;100.00
41624;BME280;27319;50.306;18.926;2022-12-24T02:41:47;97128.41;;;5.28;100.00
41624;BME280;27319;50.306;18.926;2022-12-24T02:45:49;97132.91;;;5.27;100.00
41624;BME280;27319;50.306;18.926;2022-12-24T02:49:47;97138.22;;;5.27;100.00
41624;BME280;27319;50.306;18.926;2022-12-24T02:53:48;97149.06;;;5.50;100.00
41624;BME280;27319;50.306;18.926;2022-12-24T02:57:54;97146.72;;;5.39;100.00
41624;BME280;27319;50.306;18.926;2022-12-24T03:05:09;97155.69;;;5.30;100.00
41624;BME280;27319;50.306;18.926;2022-12-24T03:11:25;97153.84;;;5.30;100.00
41624;BME280;27319;50.306;18.926;2022-12-24T03:14:27;97158.50;;;5.28;100.00
41624;BME280;27319;50.306;18.926;2022-12-24T03:17:28;97164.53;;;5.38;100.00
41624;BME280;27319;50.306;18.926;2022-12-24T03:20:37;97174.22;;;5.63;100.00
41624;BME280;27319;50.306;18.926;2022-12-24T03:23:39;97169.56;;;5.65;100.00
41624;BME280;27319;50.306;18.926;2022-12-24T03:26:41;97171.06;;;5.68;100.00
41624;BME280;27319;50.306;18.926;2022-12-24T03:29:44;97178.88;;;5.77;100.00
41624;BME280;27319;50.306;18.926;2022-12-24T03:32:46;97169.09;;;5.78;100.00
41624;BME280;27319;50.306;18.926;2022-12-24T03:35:47;97171.41;;;5.73;100.00
41624;BME280;27319;50.306;18.926;2022-12-24T03:38:48;97177.09;;;5.86;100.00
41624;BME280;27319;50.306;18.926;2022-12-24T03:41:49;97190.22;;;5.79;100.00
41624;BME280;27319;50.306;18.926;2022-12-24T03:44:50;97181.13;;;5.90;100.00
41624;BME280;27319;50.306;18.926;2022-12-24T03:47:51;97187.88;;;5.76;100.00
41624;BME280;27319;50.306;18.926;2022-12-24T03:50:52;97192.25;;;5.85;100.00
41624;BME280;27319;50.306;18.926;2022-12-24T03:53:54;97188.56;;;5.78;100.00
41624;BME280;27319;50.306;18.926;2022-12-24T03:56:55;97198.75;;;5.83;100.00
41624;BME280;27319;50.306;18.926;2022-12-24T03:59:56;97194.25;;;5.83;100.00
41624;BME280;27319;50.306;18.926;2022-12-24T04:02:57;97182.78;;;5.83;100.00
41624;BME280;27319;50.306;18.926;2022-12-24T04:06:03;97170.59;;;5.72;100.00
41624;BME280;27319;50.306;18.926;2022-12-24T04:09:04;97187.38;;;5.73;100.00
41624;BME280;27319;50.306;18.926;2022-12-24T04:12:06;97176.06;;;5.79;100.00
41624;BME280;27319;50.306;18.926;2022-12-24T04:15:08;97185.06;;;5.70;100.00
41624;BME280;27319;50.306;18.926;2022-12-24T04:18:09;97178.22;;;5.75;100.00
41624;BME280;27319;50.306;18.926;2022-12-24T04:21:10;97189.25;;;5.80;100.00
41624;BME280;27319;50.306;18.926;2022-12-24T04:24:11;97178.72;;;5.79;100.00
41624;BME280;27319;50.306;18.926;2022-12-24T04:27:14;97175.06;;;5.72;100.00
41624;BME280;27319;50.306;18.926;2022-12-24T04:30:15;97175.25;;;5.78;100.00
41624;BME280;27319;50.306;18.926;2022-12-24T04:33:16;97173.63;;;5.93;100.00
41624;BME280;27319;50.306;18.926;2022-12-24T04:36:17;97177.59;;;5.81;100.00
41624;BME280;27319;50.306;18.926;2022-12-24T04:39:19;97189.25;;;5.80;100.00
41624;BME280;27319;50.306;18.926;2022-12-24T04:42:20;97189.25;;;5.80;100.00
41624;BME280;27319;50.306;18.926;2022-12-24T04:45:21;97186.22;;;5.67;100.00
41624;BME280;27319;50.306;18.926;2022-12-24T04:48:22;97194.09;;;5.85;100.00
41624;BME280;27319;50.306;18.926;2022-12-24T04:51:23;97198.53;;;5.68;100.00
41624;BME280;27319;50.306;18.926;2022-12-24T04:54:25;97201.34;;;5.75;100.00
41624;BME280;27319;50.306;18.926;2022-12-24T04:57:26;97193.53;;;5.73;100.00
41624;BME280;27319;50.306;18.926;2022-12-24T05:00:27;97192.19;;;5.69;100.00
41624;BME280;27319;50.306;18.926;2022-12-24T05:03:29;97195.53;;;5.71;100.00
41624;BME280;27319;50.306;18.926;2022-12-24T05:06:31;97193.84;;;5.70;100.00
41624;BME280;27319;50.306;18.926;2022-12-24T05:09:32;97191.88;;;5.72;100.00
41624;BME280;27319;50.306;18.926;2022-12-24T05:12:33;97201.50;;;5.65;100.00
41624;BME280;27319;50.306;18.926;2022-12-24T05:15:34;97197.53;;;5.69;100.00
41624;BME280;27319;50.306;18.926;2022-12-24T05:18:35;97203.22;;;5.82;100.00
41624;BME280;27319;50.306;18.926;2022-12-24T05:21:36;97213.72;;;5.84;100.00
41624;BME280;27319;50.306;18.926;2022-12-24T05:24:37;97215.72;;;5.82;100.00
41624;BME280;27319;50.306;18.926;2022-12-24T05:27:56;97214.56;;;5.84;100.00
41624;BME280;27319;50.306;18.926;2022-12-24T05:30:57;97217.03;;;5.86;100.00
41624;BME280;27319;50.306;18.926;2022-12-24T05:34:18;97212.91;;;5.91;100.00
41624;BME280;27319;50.306;18.926;2022-12-24T05:38:19;97215.38;;;5.85;100.00
41624;BME280;27319;50.306;18.926;2022-12-24T05:42:20;97216.38;;;5.92;100.00
41624;BME280;27319;50.306;18.926;2022-12-24T05:46:21;97220.91;;;5.91;100.00
41624;BME280;27319;50.306;18.926;2022-12-24T05:50:02;97235.22;;;5.98;100.00
41624;BME280;27319;50.306;18.926;2022-12-24T05:53:03;97223.91;;;6.04;100.00
41624;BME280;27319;50.306;18.926;2022-12-24T05:56:07;97228.56;;;6.10;100.00
41624;BME280;27319;50.306;18.926;2022-12-24T05:59:08;97227.22;;;6.06;100.00
41624;BME280;27319;50.306;18.926;2022-12-24T06:02:09;97236.22;;;6.05;100.00
41624;BME280;27319;50.306;18.926;2022-12-24T06:05:10;97238.91;;;6.13;100.00
41624;BME280;27319;50.306;18.926;2022-12-24T06:08:11;97234.56;;;6.04;100.00
41624;BME280;27319;50.306;18.926;2022-12-24T06:11:14;97247.56;;;6.07;100.00
41624;BME280;27319;50.306;18.926;2022-12-24T06:14:15;97250.53;;;6.12;100.00
41624;BME280;27319;50.306;18.926;2022-12-24T06:17:19;97263.53;;;6.15;100.00
41624;BME280;27319;50.306;18.926;2022-12-24T06:20:20;97250.06;;;6.17;100.00
41624;BME280;27319;50.306;18.926;2022-12-24T06:23:21;97259.41;;;6.29;100.00
41624;BME280;27319;50.306;18.926;2022-12-24T06:26:23;97265.69;;;6.20;100.00
41624;BME280;27319;50.306;18.926;2022-12-24T06:29:24;97266.88;;;6.25;100.00
41624;BME280;27319;50.306;18.926;2022-12-24T06:32:25;97270.72;;;6.23;100.00
41624;BME280;27319;50.306;18.926;2022-12-24T06:35:26;97274.53;;;6.28;100.00
41624;BME280;27319;50.306;18.926;2022-12-24T06:38:47;97272.38;;;6.32;100.00
41624;BME280;27319;50.306;18.926;2022-12-24T06:42:48;97280.06;;;6.35;100.00
41624;BME280;27319;50.306;18.926;2022-12-24T06:46:28;97275.38;;;6.53;100.00
41624;BME280;27319;50.306;18.926;2022-12-24T06:49:29;97277.41;;;6.51;100.00
41624;BME280;27319;50.306;18.926;2022-12-24T06:52:30;97283.72;;;6.66;100.00
41624;BME280;27319;50.306;18.926;2022-12-24T06:55:31;97285.56;;;6.49;100.00
41624;BME280;27319;50.306;18.926;2022-12-24T06:58:33;97293.19;;;6.52;100.00
41624;BME280;27319;50.306;18.926;2022-12-24T07:01:35;97298.38;;;6.54;100.00
41624;BME280;27319;50.306;18.926;2022-12-24T07:04:35;97291.38;;;6.61;100.00
41624;BME280;27319;50.306;18.926;2022-12-24T07:07:38;97300.22;;;6.61;100.00
41624;BME280;27319;50.306;18.926;2022-12-24T07:10:39;97304.38;;;6.64;100.00
41624;BME280;27319;50.306;18.926;2022-12-24T07:13:40;97306.56;;;6.60;100.00
41624;BME280;27319;50.306;18.926;2022-12-24T07:16:40;97308.56;;;6.66;100.00
41624;BME280;27319;50.306;18.926;2022-12-24T07:19:42;97302.56;;;6.64;100.00
41624;BME280;27319;50.306;18.926;2022-12-24T07:22:42;97303.56;;;6.71;100.00
41624;BME280;27319;50.306;18.926;2022-12-24T07:25:43;97315.22;;;6.62;100.00
41624;BME280;27319;50.306;18.926;2022-12-24T07:28:44;97315.53;;;6.75;100.00
41624;BME280;27319;50.306;18.926;2022-12-24T07:31:45;97317.91;;;6.70;100.00
41624;BME280;27319;50.306;18.926;2022-12-24T07:34:46;97323.22;;;6.70;100.00
41624;BME280;27319;50.306;18.926;2022-12-24T07:37:47;97321.72;;;6.76;100.00
41624;BME280;27319;50.306;18.926;2022-12-24T07:40:48;97315.53;;;6.91;100.00
41624;BME280;27319;50.306;18.926;2022-12-24T07:43:49;97317.88;;;6.86;100.00
41624;BME280;27319;50.306;18.926;2022-12-24T07:46:50;97324.53;;;6.74;100.00
41624;BME280;27319;50.306;18.926;2022-12-24T07:49:51;97319.38;;;6.81;100.00
41624;BME280;27319;50.306;18.926;2022-12-24T07:52:52;97332.53;;;6.98;100.00
41624;BME280;27319;50.306;18.926;2022-12-24T07:55:54;97326.03;;;7.01;100.00
41624;BME280;27319;50.306;18.926;2022-12-24T07:58:54;97343.53;;;6.95;100.00
41624;BME280;27319;50.306;18.926;2022-12-24T08:01:55;97342.22;;;6.91;100.00
41624;BME280;27319;50.306;18.926;2022-12-24T08:04:56;97339.19;;;7.02;100.00
41624;BME280;27319;50.306;18.926;2022-12-24T08:07:57;97341.03;;;6.94;100.00
41624;BME280;27319;50.306;18.926;2022-12-24T08:11:03;97351.88;;;7.16;100.00
41624;BME280;27319;50.306;18.926;2022-12-24T08:14:04;97351.22;;;7.06;100.00
41624;BME280;27319;50.306;18.926;2022-12-24T08:17:16;97358.53;;;7.04;100.00
41624;BME280;27319;50.306;18.926;2022-12-24T08:20:20;97349.72;;;7.04;100.00
41624;BME280;27319;50.306;18.926;2022-12-24T08:23:21;97373.22;;;7.00;100.00
41624;BME280;27319;50.306;18.926;2022-12-24T08:26:22;97367.72;;;6.94;100.00
41624;BME280;27319;50.306;18.926;2022-12-24T08:29:23;97363.88;;;7.04;100.00
41624;BME280;27319;50.306;18.926;2022-12-24T08:32:26;97366.88;;;7.09;100.00
41624;BME280;27319;50.306;18.926;2022-12-24T08:35:27;97372.19;;;7.09;100.00
41624;BME280;27319;50.306;18.926;2022-12-24T08:38:28;97381.38;;;7.07;100.00
41624;BME280;27319;50.306;18.926;2022-12-24T08:41:30;97390.88;;;7.09;100.00
41624;BME280;27319;50.306;18.926;2022-12-24T08:44:32;97391.91;;;7.16;100.00
41624;BME280;27319;50.306;18.926;2022-12-24T08:47:34;97395.56;;;7.23;100.00
41624;BME280;27319;50.306;18.926;2022-12-24T08:50:39;97393.56;;;7.33;100.00
41624;BME280;27319;50.306;18.926;2022-12-24T08:53:40;97395.53;;;7.31;100.00
41624;BME280;27319;50.306;18.926;2022-12-24T08:56:42;97406.38;;;7.30;100.00
41624;BME280;27319;50.306;18.926;2022-12-24T08:59:43;97405.84;;;7.50;100.00
41624;BME280;27319;50.306;18.926;2022-12-24T09:02:44;97414.69;;;7.59;100.00
41624;BME280;27319;50.306;18.926;2022-12-24T09:05:54;97420.91;;;7.51;100.00
41624;BME280;27319;50.306;18.926;2022-12-24T09:08:57;97418.38;;;7.58;100.00
41624;BME280;27319;50.306;18.926;2022-12-24T09:11:58;97429.88;;;7.66;100.00
41624;BME280;27319;50.306;18.926;2022-12-24T09:14:59;97427.72;;;7.62;100.00
41624;BME280;27319;50.306;18.926;2022-12-24T09:18:00;97423.69;;;7.58;100.00
41624;BME280;27319;50.306;18.926;2022-12-24T09:21:04;97431.03;;;7.64;100.00
41624;BME280;27319;50.306;18.926;2022-12-24T09:24:11;97435.50;;;7.79;100.00
41624;BME280;27319;50.306;18.926;2022-12-24T09:27:12;97440.00;;;7.87;100.00
41624;BME280;27319;50.306;18.926;2022-12-24T09:30:13;97450.53;;;7.88;100.00
41624;BME280;27319;50.306;18.926;2022-12-24T09:33:15;97447.41;;;7.77;100.00
41624;BME280;27319;50.306;18.926;2022-12-24T09:36:16;97440.50;;;7.98;100.00
41624;BME280;27319;50.306;18.926;2022-12-24T09:39:18;97453.34;;;7.95;100.00
41624;BME280;27319;50.306;18.926;2022-12-24T09:49:14;97468.66;;;8.09;100.00
41624;BME280;27319;50.306;18.926;2022-12-24T09:52:38;97467.50;;;8.11;100.00
41624;BME280;27319;50.306;18.926;2022-12-24T09:55:46;97485.34;;;8.19;98.93
41624;BME280;27319;50.306;18.926;2022-12-24T09:59:02;97474.81;;;8.25;98.88
41624;BME280;27319;50.306;18.926;2022-12-24T10:02:09;97486.53;;;8.24;98.55
41624;BME280;27319;50.306;18.926;2022-12-24T10:05:14;97482.47;;;8.36;98.14
41624;BME280;27319;50.306;18.926;2022-12-24T10:15:39;97497.50;;;8.45;98.23
41624;BME280;27319;50.306;18.926;2022-12-24T10:21:57;97509.53;;;8.49;97.97
41624;BME280;27319;50.306;18.926;2022-12-24T10:25:20;97504.88;;;8.43;97.74
41624;BME280;27319;50.306;18.926;2022-12-24T10:28:30;97504.81;;;8.51;97.80
41624;BME280;27319;50.306;18.926;2022-12-24T10:31:51;97510.34;;;8.50;98.13
41624;BME280;27319;50.306;18.926;2022-12-24T10:34:58;97518.19;;;8.51;98.49
41624;BME280;27319;50.306;18.926;2022-12-24T10:38:01;97518.34;;;8.58;98.27
41624;BME280;27319;50.306;18.926;2022-12-24T10:41:02;97528.19;;;8.57;98.68
41624;BME280;27319;50.306;18.926;2022-12-24T10:44:03;97532.03;;;8.55;98.42
41624;BME280;27319;50.306;18.926;2022-12-24T10:47:06;97531.56;;;8.51;98.95
41624;BME280;27319;50.306;18.926;2022-12-24T10:50:13;97541.72;;;8.56;99.01
41624;BME280;27319;50.306;18.926;2022-12-24T10:53:31;97543.59;;;8.55;99.92
41624;BME280;27319;50.306;18.926;2022-12-24T10:57:32;97547.28;;;8.46;100.00
41624;BME280;27319;50.306;18.926;2022-12-24T11:58:57;97647.91;;;8.39;100.00
41624;BME280;27319;50.306;18.926;2022-12-24T12:02:16;97655.28;;;8.37;100.00
41624;BME280;27319;50.306;18.926;2022-12-24T12:06:46;97660.28;;;8.32;100.00
41624;BME280;27319;50.306;18.926;2022-12-24T12:10:29;97662.97;;;8.32;100.00
41624;BME280;27319;50.306;18.926;2022-12-24T12:14:31;97674.16;;;8.36;100.00
41624;BME280;27319;50.306;18.926;2022-12-24T12:18:37;97699.03;;;8.36;100.00
41624;BME280;27319;50.306;18.926;2022-12-24T12:26:29;97712.41;;;8.36;100.00
41624;BME280;27319;50.306;18.926;2022-12-24T12:30:35;97716.44;;;8.32;100.00
41624;BME280;27319;50.306;18.926;2022-12-24T12:34:21;97709.75;;;8.28;100.00
41624;BME280;27319;50.306;18.926;2022-12-24T12:38:23;97720.78;;;8.33;100.00
41624;BME280;27319;50.306;18.926;2022-12-24T12:42:30;97724.63;;;8.31;100.00
41624;BME280;27319;50.306;18.926;2022-12-24T12:57:30;97745.16;;;8.46;100.00
41624;BME280;27319;50.306;18.926;2022-12-24T13:00:36;97749.34;;;8.49;100.00
41624;BME280;27319;50.306;18.926;2022-12-24T13:07:23;97762.72;;;8.41;100.00
41624;BME280;27319;50.306;18.926;2022-12-24T13:11:42;97770.56;;;8.34;100.00
41624;BME280;27319;50.306;18.926;2022-12-24T13:15:34;97779.94;;;8.46;100.00
41624;BME280;27319;50.306;18.926;2022-12-24T13:23:00;97808.16;;;8.33;100.00
41624;BME280;27319;50.306;18.926;2022-12-24T13:34:52;97831.56;;;8.31;100.00
41624;BME280;27319;50.306;18.926;2022-12-24T13:46:54;97841.00;;;8.17;100.00
41624;BME280;27319;50.306;18.926;2022-12-24T13:50:55;97852.56;;;8.18;100.00
41624;BME280;27319;50.306;18.926;2022-12-24T13:58:18;97856.53;;;8.14;100.00
41624;BME280;27319;50.306;18.926;2022-12-24T14:01:42;97861.53;;;8.09;100.00
41624;BME280;27319;50.306;18.926;2022-12-24T14:09:26;97871.91;;;8.12;100.00
41624;BME280;27319;50.306;18.926;2022-12-24T14:17:26;97898.59;;;8.04;100.00
41624;BME280;27319;50.306;18.926;2022-12-24T14:21:33;97897.44;;;8.06;100.00
41624;BME280;27319;50.306;18.926;2022-12-24T14:25:32;97896.91;;;8.03;100.00
41624;BME280;27319;50.306;18.926;2022-12-24T14:29:41;97900.91;;;7.99;100.00
41624;BME280;27319;50.306;18.926;2022-12-24T14:33:49;97915.41;;;7.96;100.00
41624;BME280;27319;50.306;18.926;2022-12-24T14:37:58;97929.41;;;7.90;100.00
41624;BME280;27319;50.306;18.926;2022-12-24T14:45:36;97936.63;;;7.90;100.00
41624;BME280;27319;50.306;18.926;2022-12-24T14:49:39;97951.88;;;7.97;100.00
41624;BME280;27319;50.306;18.926;2022-12-24T14:53:13;97960.81;;;7.88;100.00
41624;BME280;27319;50.306;18.926;2022-12-24T15:00:34;97962.63;;;7.88;100.00
41624;BME280;27319;50.306;18.926;2022-12-24T15:07:44;97977.09;;;7.77;100.00
41624;BME280;27319;50.306;18.926;2022-12-24T15:11:45;97980.44;;;7.79;100.00
41624;BME280;27319;50.306;18.926;2022-12-24T15:15:49;97990.53;;;7.85;100.00
41624;BME280;27319;50.306;18.926;2022-12-24T15:19:32;97992.72;;;7.90;100.00
41624;BME280;27319;50.306;18.926;2022-12-24T15:23:43;98005.75;;;7.93;100.00
41624;BME280;27319;50.306;18.926;2022-12-24T15:27:39;97997.97;;;7.99;100.00
41624;BME280;27319;50.306;18.926;2022-12-24T15:31:40;98007.06;;;8.14;100.00
41624;BME280;27319;50.306;18.926;2022-12-24T15:39:13;98014.63;;;7.93;100.00
41624;BME280;27319;50.306;18.926;2022-12-24T15:43:14;98015.16;;;7.97;100.00
41624;BME280;27319;50.306;18.926;2022-12-24T15:47:18;98023.84;;;7.99;100.00
41624;BME280;27319;50.306;18.926;2022-12-24T15:51:36;98026.69;;;7.97;100.00
41624;BME280;27319;50.306;18.926;2022-12-24T15:55:25;98036.53;;;7.97;100.00
41624;BME280;27319;50.306;18.926;2022-12-24T16:02:42;98045.84;;;7.93;100.00
41624;BME280;27319;50.306;18.926;2022-12-24T16:05:45;98045.78;;;7.85;100.00
41624;BME280;27319;50.306;18.926;2022-12-24T16:08:46;98052.88;;;7.94;100.00
41624;BME280;27319;50.306;18.926;2022-12-24T16:11:47;98052.03;;;7.93;100.00
41624;BME280;27319;50.306;18.926;2022-12-24T16:14:51;98053.72;;;7.94;100.00
41624;BME280;27319;50.306;18.926;2022-12-24T16:18:17;98067.13;;;8.02;100.00
41624;BME280;27319;50.306;18.926;2022-12-24T16:22:17;98058.06;;;7.95;100.00
41624;BME280;27319;50.306;18.926;2022-12-24T16:26:17;98054.97;;;7.82;100.00
41624;BME280;27319;50.306;18.926;2022-12-24T16:30:18;98058.81;;;7.88;99.10
41624;BME280;27319;50.306;18.926;2022-12-24T16:34:19;98056.00;;;7.89;99.46
41624;BME280;27319;50.306;18.926;2022-12-24T16:38:19;98055.25;;;7.79;99.09
41624;BME280;27319;50.306;18.926;2022-12-24T16:42:00;98065.50;;;7.84;98.83
41624;BME280;27319;50.306;18.926;2022-12-24T16:45:20;98072.38;;;7.86;99.29
41624;BME280;27319;50.306;18.926;2022-12-24T16:48:42;98067.47;;;7.82;98.81
41624;BME280;27319;50.306;18.926;2022-12-24T16:52:42;98079.56;;;7.68;99.98
41624;BME280;27319;50.306;18.926;2022-12-24T16:56:43;98078.56;;;7.69;99.62
41624;BME280;27319;50.306;18.926;2022-12-24T17:00:43;98098.94;;;7.70;98.68
41624;BME280;27319;50.306;18.926;2022-12-24T17:04:24;98094.88;;;7.66;97.13
41624;BME280;27319;50.306;18.926;2022-12-24T17:07:25;98098.56;;;7.83;97.70
41624;BME280;27319;50.306;18.926;2022-12-24T17:10:26;98109.59;;;7.88;97.03
41624;BME280;27319;50.306;18.926;2022-12-24T17:13:27;98112.69;;;7.75;96.37
41624;BME280;27319;50.306;18.926;2022-12-24T17:16:28;98102.00;;;7.75;96.62
41624;BME280;27319;50.306;18.926;2022-12-24T17:19:29;98106.00;;;7.79;97.08
41624;BME280;27319;50.306;18.926;2022-12-24T17:22:50;98114.63;;;7.73;97.20
41624;BME280;27319;50.306;18.926;2022-12-24T17:26:51;98116.34;;;7.74;95.72
41624;BME280;27319;50.306;18.926;2022-12-24T17:30:52;98125.81;;;7.86;96.49
41624;BME280;27319;50.306;18.926;2022-12-24T17:34:53;98122.31;;;7.68;96.80
41624;BME280;27319;50.306;18.926;2022-12-24T17:38:34;98133.59;;;7.62;96.52
41624;BME280;27319;50.306;18.926;2022-12-24T17:41:56;98129.16;;;7.53;97.00
41624;BME280;27319;50.306;18.926;2022-12-24T17:46:02;98140.31;;;7.49;96.82
41624;BME280;27319;50.306;18.926;2022-12-24T17:50:03;98139.81;;;7.36;98.44
41624;BME280;27319;50.306;18.926;2022-12-24T17:54:04;98144.22;;;7.27;97.61
41624;BME280;27319;50.306;18.926;2022-12-24T17:58:05;98140.59;;;7.46;97.44
41624;BME280;27319;50.306;18.926;2022-12-24T18:02:02;98147.00;;;7.35;97.52
41624;BME280;27319;50.306;18.926;2022-12-24T18:05:23;98143.03;;;7.39;95.92
41624;BME280;27319;50.306;18.926;2022-12-24T18:09:23;98148.06;;;7.42;96.54
41624;BME280;27319;50.306;18.926;2022-12-24T18:13:24;98156.75;;;7.44;96.51
41624;BME280;27319;50.306;18.926;2022-12-24T18:17:24;98157.47;;;7.46;96.26
41624;BME280;27319;50.306;18.926;2022-12-24T18:21:27;98164.34;;;7.49;95.12
41624;BME280;27319;50.306;18.926;2022-12-24T18:25:26;98171.59;;;7.56;95.20
41624;BME280;27319;50.306;18.926;2022-12-24T18:29:27;98175.41;;;7.54;95.23
41624;BME280;27319;50.306;18.926;2022-12-24T18:33:07;98184.56;;;7.51;95.57
41624;BME280;27319;50.306;18.926;2022-12-24T18:36:28;98186.97;;;7.45;94.75
41624;BME280;27319;50.306;18.926;2022-12-24T18:40:29;98197.91;;;7.51;95.13
41624;BME280;27319;50.306;18.926;2022-12-24T18:44:29;98202.31;;;7.43;96.32
41624;BME280;27319;50.306;18.926;2022-12-24T18:48:30;98212.22;;;7.50;95.38
41624;BME280;27319;50.306;18.926;2022-12-24T18:52:31;98214.53;;;7.45;95.74
41624;BME280;27319;50.306;18.926;2022-12-24T18:56:31;98221.56;;;7.46;95.85
41624;BME280;27319;50.306;18.926;2022-12-24T19:00:32;98221.69;;;7.45;97.15
41624;BME280;27319;50.306;18.926;2022-12-24T19:04:13;98233.09;;;7.37;96.80
41624;BME280;27319;50.306;18.926;2022-12-24T19:07:17;98235.31;;;7.42;97.46
41624;BME280;27319;50.306;18.926;2022-12-24T19:10:18;98235.78;;;7.37;97.29
41624;BME280;27319;50.306;18.926;2022-12-24T19:13:19;98243.97;;;7.26;97.87
41624;BME280;27319;50.306;18.926;2022-12-24T19:16:20;98237.19;;;7.41;97.20
41624;BME280;27319;50.306;18.926;2022-12-24T19:19:21;98246.22;;;7.31;97.00
41624;BME280;27319;50.306;18.926;2022-12-24T19:22:46;98246.22;;;7.31;96.22
41624;BME280;27319;50.306;18.926;2022-12-24T19:26:47;98244.66;;;7.38;97.17
41624;BME280;27319;50.306;18.926;2022-12-24T19:30:47;98257.06;;;7.29;97.44
41624;BME280;27319;50.306;18.926;2022-12-24T19:34:48;98260.53;;;7.39;97.06
41624;BME280;27319;50.306;18.926;2022-12-24T19:38:48;98266.47;;;7.24;97.76
41624;BME280;27319;50.306;18.926;2022-12-24T19:42:49;98268.19;;;7.25;97.20
41624;BME280;27319;50.306;18.926;2022-12-24T19:46:50;98265.09;;;7.20;97.35
41624;BME280;27319;50.306;18.926;2022-12-24T19:50:51;98283.63;;;7.21;97.23
41624;BME280;27319;50.306;18.926;2022-12-24T19:54:51;98273.84;;;7.12;96.65
41624;BME280;27319;50.306;18.926;2022-12-24T19:58:53;98270.41;;;7.29;95.95
41624;BME280;27319;50.306;18.926;2022-12-24T20:02:40;98268.31;;;7.23;96.14
41624;BME280;27319;50.306;18.926;2022-12-24T20:05:42;98280.34;;;7.27;96.93
41624;BME280;27319;50.306;18.926;2022-12-24T20:08:43;98281.13;;;7.20;96.43
41624;BME280;27319;50.306;18.926;2022-12-24T20:11:44;98277.44;;;7.21;97.53
41624;BME280;27319;50.306;18.926;2022-12-24T20:15:05;98284.19;;;7.25;96.29
41624;BME280;27319;50.306;18.926;2022-12-24T20:19:12;98289.84;;;7.12;96.67
41624;BME280;27319;50.306;18.926;2022-12-24T20:22:53;98289.34;;;6.99;97.66
41624;BME280;27319;50.306;18.926;2022-12-24T20:26:20;98294.66;;;6.99;97.25
41624;BME280;27319;50.306;18.926;2022-12-24T20:30:20;98289.47;;;6.98;97.87
41624;BME280;27319;50.306;18.926;2022-12-24T20:34:21;98298.75;;;6.94;98.54
41624;BME280;27319;50.306;18.926;2022-12-24T20:38:21;98304.50;;;6.89;98.79
41624;BME280;27319;50.306;18.926;2022-12-24T20:42:22;98306.06;;;6.92;97.15
41624;BME280;27319;50.306;18.926;2022-12-24T20:46:23;98298.28;;;6.98;98.70
41624;BME280;27319;50.306;18.926;2022-12-24T20:50:05;98300.84;;;6.90;98.50
41624;BME280;27319;50.306;18.926;2022-12-24T20:53:25;98296.78;;;6.86;98.66